• Join FlightAware (Why Join?)
  • Login
  • US Flag 
11:31PM EDT


 

Airport Tracker/Info


-or-


 

Live Flight TrackerFlight Track Log ✈ N68AP ✈ 11-May-2013 ✈ 3NP - 3NP

Flight Track Log - Related Links

Times and Time Zones

All times are in EDT time to prevent confusion due to time zone crossing. See the N68AP flight status page for this flight to view local times or setup timezone preferences in your user account.

Time Position Orientation Groundspeed Altitude Reporting Facility
EDT Latitude Longitude Course Direction KTS MPH feet Rate Location/Type
11:57AM 42.3244 -84.3727 330° Northwest  Level FlightAware Approximate
11:58AM 42.3506 -84.3934 330° Northwest  Level FlightAware Approximate
11:59AM 42.3769 -84.4140 330° Northwest  Level FlightAware Approximate
12:00PM 42.4031 -84.4347 330° Northwest  Level FlightAware Approximate
12:01PM 42.4293 -84.4554 330° Northwest  Level FlightAware Approximate
12:02PM 42.4556 -84.4761 330° Northwest  Level FlightAware Approximate
12:03PM 42.4818 -84.4968 330° Northwest  Level FlightAware Approximate
12:04PM 42.5080 -84.5176 330° Northwest  Level FlightAware Approximate
12:05PM 42.5342 -84.5383 330° Northwest  Level FlightAware Approximate
12:06PM 42.5605 -84.5591 330° Northwest  Level FlightAware Approximate
12:07PM 42.5867 -84.5799 330° Northwest  Level FlightAware Approximate
12:08PM 42.6129 -84.6007 330° Northwest  Level FlightAware Approximate
12:09PM 42.6391 -84.6216 330° Northwest  Level FlightAware Approximate
12:10PM 42.6653 -84.6424 330° Northwest  Level FlightAware Approximate
12:11PM 42.6915 -84.6633 330° Northwest  Level FlightAware Approximate
12:12PM 42.7158 -84.6845 225° Southwest  Level FlightAware Approximate
12:13PM 42.6944 -84.7138 225° Southwest  Level FlightAware Approximate
12:14PM 42.6730 -84.7431 225° Southwest  Level FlightAware Approximate
12:14PM 42.6506 -84.8167 225° Southwest 87 100 3,100  Level Chicago Center
12:15PM 42.6516 -84.7723 225° Southwest  Level FlightAware Approximate
12:15PM 42.6206 -84.8608 227° Southwest 150 173 3,200  Level Chicago Center
12:16PM 42.6302 -84.8016 225° Southwest  Level FlightAware Approximate
12:16PM 42.5919 -84.9031 227° Southwest 151 174 3,100  Level Chicago Center
12:17PM 42.6003 -84.8423 225° Southwest  Level FlightAware Approximate
12:17PM 42.5569 -84.9528 226° Southwest 152 175 3,100  Level Chicago Center
12:18PM 42.5704 -84.8829 225° Southwest  Level FlightAware Approximate
12:18PM 42.5272 -84.9919 224° Southwest 151 174 3,100  Level Chicago Center
12:19PM 42.5405 -84.9236 225° Southwest  Level FlightAware Approximate
12:19PM 42.4953 -85.0289 220° Southwest 150 173 3,200  Level Chicago Center
12:20PM 42.4647 -85.0658 222° Southwest 149 171 3,200 -120 Level Chicago Center
12:21PM 42.4331 -85.1039 222° Southwest 151 174 3,000 -360 Descending Chicago Center
12:22PM 42.3969 -85.1444 220° Southwest 151 174 2,500 -180 Descending Chicago Center
12:24PM 42.3404 -85.2061 219° Southwest  Level FlightAware Approximate
12:26PM 42.2806 -85.2672 93° East 118 136 2,200  Level Chicago Center
12:27PM 42.2564 -85.2494 151° Southeast 109 125 3,100 480 Climbing Chicago Center
12:28PM 42.2553 -85.1917 91° East 141 162 3,200  Climbing Chicago Center
12:29PM 42.2469 -85.1194 99° East 154 177 3,100 -60 Descending Chicago Center
12:30PM 42.2403 -85.0572 98° East 161 185 3,100  Level Chicago Center
12:31PM 42.2869 -84.9194 93° East  Level FlightAware Approximate
12:31PM 42.2325 -84.9961 100° East 164 189 3,100  Level Chicago Center
12:32PM 42.2244 -84.9369 100° East 163 188 3,100  Level Chicago Center
12:33PM 42.2150 -84.8772 102° East 162 186 3,100  Level Chicago Center
12:34PM 42.2050 -84.8175 103° East 163 188 3,100  Level Chicago Center
12:35PM 42.1992 -84.7558 97° East 164 189 3,200 60 Climbing Chicago Center
12:36PM 42.1961 -84.6967 94° East 163 188 3,300 60 Climbing Chicago Center
12:37PM 42.1914 -84.6239 95° East 162 186 3,400 -60 Climbing Chicago Center
12:38PM 42.1825 -84.5636 101° East 162 186 3,200 -240 Descending Chicago Center
12:39PM 42.1728 -84.4939 101° East 166 191 3,000 -240 Descending Chicago Center